Time;durP1;ratioP1;P1;durP2;ratioP2;P2;SDS_P1;SDS_P2;PMS_P1;PMS_P2;Temp;Humidity;BMP_temperature;BMP_pressure;BME280_temperature;BME280_humidity;BME280_pressure;Samples;Min_cycle;Max_cycle;Signal;HPM_P1;HPM_P2
2021/12/16 00:01:46;;;;;;;36.38;24.50;;;9.10;99.90;;;9.20;76.93;102505.19;4919577;29;20257;-72
2021/12/16 00:07:25;;;;;;;42.38;26.10;;;9.10;99.90;;;9.22;76.88;102507.75;4921383;29;20211;-72
2021/12/16 00:10:00;;;;;;;39.58;26.23;;;9.10;99.90;;;9.21;76.94;102503.34;4921273;29;20585;-72
2021/12/16 00:32:31;;;;;;;41.78;27.90;;;9.10;99.90;;;9.20;77.25;102507.06;4914107;29;20209;-71
2021/12/16 00:35:01;;;;;;;46.97;28.42;;;9.10;99.90;;;9.15;77.17;102504.78;4913958;29;20791;-71
2021/12/16 00:37:30;;;;;;;45.60;28.27;;;9.10;99.90;;;9.20;77.19;102512.47;4915088;29;20202;-73
2021/12/16 00:39:59;;;;;;;41.95;28.15;;;9.10;99.90;;;9.22;77.07;102507.75;4914271;29;20248;-71
2021/12/16 00:42:40;;;;;;;48.85;26.35;;;9.10;99.90;;;9.19;77.18;102508.06;4914997;29;20582;-72
2021/12/16 00:45:32;;;;;;;49.92;30.25;;;9.10;99.90;;;9.11;77.44;102515.06;4914136;29;20244;-71
2021/12/16 00:48:19;;;;;;;47.35;28.45;;;9.10;99.90;;;9.09;77.75;102511.69;4920268;29;20201;-71
2021/12/16 00:56:19;;;;;;;49.50;30.63;;;9.00;99.90;;;8.99;79.11;102516.31;4929245;29;20182;-72
2021/12/16 00:58:53;;;;;;;55.03;31.95;;;8.90;99.90;;;8.88;79.38;102519.22;4930953;29;20201;-72
2021/12/16 01:01:39;;;;;;;47.03;28.17;;;8.90;99.90;;;8.84;80.06;102517.81;4932517;29;20185;-72
2021/12/16 01:04:41;;;;;;;53.35;30.70;;;8.70;99.90;;;8.88;80.16;102519.22;4931927;29;20257;-72
2021/12/16 01:35:34;;;;;;;57.50;34.03;;;8.50;99.90;;;8.55;82.41;102549.50;4913708;29;20265;-72
2021/12/16 01:38:51;;;;;;;66.57;34.13;;;8.50;99.90;;;8.55;82.69;102539.56;4914333;29;20591;-72
2021/12/16 01:49:59;;;;;;;46.13;30.30;;;8.50;99.90;;;8.57;82.01;102525.91;4911347;29;20593;-72
2021/12/16 01:55:28;;;;;;;51.50;28.80;;;8.50;99.90;;;8.72;81.74;102541.47;4910492;29;20221;-73
2021/12/16 01:58:09;;;;;;;47.80;29.27;;;8.50;99.90;;;8.67;81.07;102532.97;4914139;29;20214;-73
2021/12/16 02:00:55;;;;;;;43.47;27.02;;;8.50;99.90;;;8.68;80.47;102523.00;4914332;29;20212;-73
2021/12/16 02:03:40;;;;;;;45.25;28.65;;;8.60;99.90;;;8.73;80.79;102532.38;4914165;29;20213;-73
2021/12/16 02:06:37;;;;;;;41.78;26.30;;;8.60;99.90;;;8.65;79.19;102539.53;4914722;29;20197;-72
2021/12/16 02:09:23;;;;;;;36.38;22.02;;;8.50;99.90;;;8.61;79.05;102540.81;4914993;29;20222;-72
2021/12/16 02:11:58;;;;;;;39.15;24.55;;;8.50;99.90;;;8.65;78.98;102536.81;4914284;29;20587;-71
2021/12/16 02:28:31;;;;;;;26.17;17.63;;;8.60;99.90;;;8.65;77.04;102539.53;4916861;29;20181;-71
2021/12/16 02:31:29;;;;;;;24.45;17.15;;;8.60;99.90;;;8.69;77.32;102538.22;4916974;29;20220;-71
2021/12/16 02:34:21;;;;;;;30.75;18.30;;;8.60;99.90;;;8.59;77.18;102537.41;4917135;29;20316;-72
2021/12/16 02:36:53;;;;;;;31.98;17.83;;;8.60;99.90;;;8.69;77.50;102536.38;4916632;29;20184;-72
2021/12/16 02:39:28;;;;;;;25.58;16.15;;;8.60;99.90;;;8.73;76.48;102526.97;4918084;29;20188;-71
2021/12/16 02:42:05;;;;;;;26.30;18.25;;;8.60;99.90;;;8.80;76.42;102531.78;4918130;29;20236;-72
2021/12/16 02:44:40;;;;;;;28.48;17.77;;;8.60;99.90;;;8.73;76.12;102536.91;4916994;29;20307;-73
2021/12/16 02:49:59;;;;;;;23.88;15.95;;;8.70;99.90;;;8.74;76.07;102533.22;4916657;29;20395;-73
2021/12/16 02:52:30;;;;;;;24.08;17.08;;;8.70;99.90;;;8.70;76.11;102529.97;4917024;29;20197;-72
2021/12/16 02:55:00;;;;;;;23.15;13.55;;;8.60;99.90;;;8.71;76.09;102530.84;4917744;29;20308;-72
2021/12/16 02:57:29;;;;;;;23.75;16.15;;;8.60;99.90;;;8.80;76.22;102529.06;4918793;29;20244;-74
2021/12/16 02:59:57;;;;;;;17.50;14.40;;;8.60;99.90;;;8.79;75.55;102530.91;4918803;29;20193;-71
2021/12/16 03:02:27;;;;;;;21.08;14.45;;;8.70;99.90;;;8.72;75.82;102530.66;4920788;29;20229;-72
2021/12/16 03:04:56;;;;;;;24.42;13.70;;;8.60;99.90;;;8.75;75.61;102529.53;4920423;29;20221;-72
2021/12/16 03:07:25;;;;;;;19.42;14.85;;;8.70;99.90;;;8.76;75.68;102535.78;4919894;29;20217;-73
2021/12/16 03:12:55;;;;;;;21.90;13.80;;;8.70;99.90;;;8.78;75.37;102536.47;4917540;29;20208;-72
2021/12/16 03:15:39;;;;;;;21.92;13.88;;;8.70;99.90;;;8.70;76.00;102543.47;4915869;29;20311;-71
2021/12/16 03:18:17;;;;;;;18.88;13.07;;;8.60;99.90;;;8.74;75.66;102544.03;4916303;29;20666;-72
2021/12/16 03:20:48;;;;;;;18.05;14.10;;;8.60;99.90;;;8.70;76.05;102548.03;4916128;29;20190;-73
2021/12/16 03:23:36;;;;;;;18.15;13.02;;;8.60;99.90;;;8.72;75.91;102546.00;4917107;29;20174;-72
2021/12/16 03:29:12;;;;;;;17.63;12.82;;;8.60;99.90;;;8.75;75.76;102552.97;4915705;29;20221;-72
2021/12/16 03:32:15;;;;;;;18.15;12.20;;;8.60;99.90;;;8.76;75.58;102560.94;4916490;29;20273;-71
2021/12/16 03:34:58;;;;;;;19.25;13.35;;;8.60;99.90;;;8.88;75.46;102559.72;4916630;29;20575;-72
2021/12/16 03:37:30;;;;;;;20.23;13.75;;;8.70;99.90;;;8.75;75.39;102555.66;4917364;29;20174;-71
2021/12/16 03:40:07;;;;;;;17.63;12.50;;;8.70;99.90;;;8.76;75.42;102552.81;4916747;29;20669;-72
2021/12/16 03:42:42;;;;;;;18.75;13.10;;;8.70;99.90;;;8.79;75.12;102552.53;4915863;29;20296;-71
2021/12/16 03:48:07;;;;;;;15.45;13.65;;;8.60;99.90;;;8.74;75.22;102557.50;4915156;29;20202;-73
2021/12/16 03:50:36;;;;;;;17.95;12.18;;;8.60;99.90;;;8.65;75.19;102561.13;4916200;29;20217;-72
2021/12/16 03:53:06;;;;;;;23.25;14.25;;;8.60;99.90;;;8.79;75.14;102568.72;4915803;29;20667;-72
2021/12/16 03:55:37;;;;;;;19.10;12.05;;;8.60;99.90;;;8.73;75.33;102561.22;4915788;29;20209;-71
2021/12/16 03:58:07;;;;;;;17.48;13.27;;;8.60;99.90;;;8.78;75.03;102567.00;4915763;29;20670;-71
2021/12/16 04:00:45;;;;;;;17.15;13.07;;;8.70;99.90;;;8.82;74.96;102563.00;4915661;29;20213;-72
2021/12/16 04:03:14;;;;;;;16.83;13.15;;;8.70;99.90;;;8.81;75.17;102557.78;4916265;29;20181;-71
2021/12/16 04:05:46;;;;;;;23.25;13.70;;;8.70;99.90;;;8.79;75.21;102568.72;4916572;29;20512;-71
2021/12/16 04:08:16;;;;;;;22.83;13.60;;;8.70;99.90;;;8.76;74.92;102562.78;4914910;29;20260;-72
2021/12/16 04:11:02;;;;;;;20.13;13.88;;;8.70;99.90;;;8.66;75.43;102569.06;4914691;29;20244;-72
2021/12/16 04:13:53;;;;;;;18.55;12.75;;;8.60;99.90;;;8.73;75.03;102570.16;4915059;29;20222;-71
2021/12/16 04:16:36;;;;;;;17.02;12.43;;;8.60;99.90;;;8.68;74.98;102566.19;4916090;29;20170;-71
2021/12/16 04:19:11;;;;;;;23.55;14.07;;;8.60;99.90;;;8.70;75.37;102564.22;4914848;29;20197;-71
2021/12/16 04:21:46;;;;;;;24.98;13.65;;;8.60;99.90;;;8.68;75.27;102560.81;4914786;29;20196;-72
2021/12/16 04:24:16;;;;;;;18.38;13.77;;;8.60;99.90;;;8.68;75.03;102558.97;4914808;29;20247;-70
2021/12/16 04:26:48;;;;;;;24.17;14.45;;;8.60;99.90;;;8.63;75.45;102568.50;4914807;29;20198;-72
2021/12/16 04:29:17;;;;;;;16.00;12.57;;;8.60;99.90;;;8.68;75.03;102567.06;4915061;29;20201;-72
2021/12/16 04:31:47;;;;;;;16.35;12.50;;;8.60;99.90;;;8.63;75.18;102565.78;4916279;29;20206;-72
2021/12/16 04:34:18;;;;;;;18.30;13.32;;;8.60;99.90;;;8.69;75.14;102571.47;4914508;29;20217;-71
2021/12/16 04:36:47;;;;;;;17.02;12.95;;;8.60;99.90;;;8.71;74.82;102577.53;4914680;29;20265;-72
2021/12/16 04:39:22;;;;;;;19.35;13.68;;;8.60;99.90;;;8.68;75.68;102572.44;4913919;29;20198;-73
2021/12/16 04:41:53;;;;;;;18.52;12.32;;;8.60;99.90;;;8.71;75.39;102585.63;4913147;29;20240;-71
2021/12/16 04:44:25;;;;;;;20.08;12.63;;;8.60;99.90;;;8.77;75.44;102576.09;4914125;29;20229;-70
2021/12/16 04:46:57;;;;;;;17.95;13.75;;;8.70;99.90;;;8.62;75.96;102578.44;4913713;29;20200;-72
2021/12/16 04:49:26;;;;;;;18.05;12.65;;;8.60;99.90;;;8.53;76.25;102583.88;4913861;29;20206;-72
2021/12/16 04:52:02;;;;;;;20.75;13.48;;;8.50;99.90;;;8.62;76.23;102588.38;4913014;29;20213;-71
2021/12/16 04:54:30;;;;;;;19.42;13.73;;;8.50;99.90;;;8.62;76.50;102588.38;4913372;29;20244;-71
2021/12/16 04:57:01;;;;;;;17.70;13.93;;;8.50;99.90;;;8.64;76.34;102591.78;4913467;29;20194;-71
2021/12/16 04:59:31;;;;;;;19.95;13.88;;;8.50;99.90;;;8.58;76.22;102590.53;4913447;29;20299;-71
2021/12/16 05:02:06;;;;;;;20.10;12.43;;;8.50;99.90;;;8.53;76.84;102603.63;4913155;29;20284;-72
2021/12/16 05:05:03;;;;;;;23.08;13.38;;;8.50;99.90;;;8.51;76.66;102591.28;4913325;29;20268;-71
2021/12/16 05:07:34;;;;;;;22.05;13.40;;;8.50;99.90;;;8.64;76.76;102599.88;4913498;29;20193;-71
2021/12/16 05:10:24;;;;;;;17.13;13.25;;;8.50;99.90;;;8.72;76.45;102600.00;4913221;29;20209;-71
2021/12/16 05:13:09;;;;;;;23.52;15.68;;;8.60;99.90;;;8.53;77.23;102610.84;4912895;29;20272;-72
2021/12/16 05:15:41;;;;;;;23.23;14.60;;;8.50;99.90;;;8.45;77.71;102608.91;4913196;29;20293;-70
2021/12/16 05:18:19;;;;;;;21.13;15.82;;;8.40;99.90;;;8.50;77.69;102611.16;4914292;29;20924;-72
2021/12/16 05:20:55;;;;;;;19.75;14.38;;;8.40;99.90;;;8.59;77.92;102612.97;4920746;29;20465;-72
2021/12/16 05:26:20;;;;;;;24.20;15.77;;;8.40;99.90;;;8.42;79.21;102617.31;4921142;29;20213;-72
2021/12/16 05:29:15;;;;;;;26.02;17.65;;;8.40;99.90;;;8.28;79.98;102623.09;4925196;29;20227;-74
2021/12/16 05:31:45;;;;;;;20.98;15.77;;;8.30;99.90;;;8.19;80.33;102624.84;4927441;29;20458;-72
2021/12/16 05:34:15;;;;;;;26.90;16.52;;;8.20;99.90;;;8.21;80.74;102622.84;4929294;29;20312;-70
2021/12/16 05:36:44;;;;;;;29.10;16.60;;;8.20;99.90;;;8.19;80.89;102621.28;4929652;29;20192;-70
2021/12/16 05:39:15;;;;;;;23.63;15.38;;;8.10;99.90;;;8.17;81.13;102617.91;4933602;29;20193;-71
2021/12/16 05:41:52;;;;;;;31.90;17.20;;;8.10;99.90;;;8.15;81.32;102623.44;4916759;29;20538;-72
2021/12/16 05:44:24;;;;;;;30.83;19.10;;;8.10;99.90;;;8.07;81.54;102620.59;4913566;29;20241;-71
2021/12/16 05:46:52;;;;;;;29.23;17.90;;;8.00;99.90;;;8.00;82.12;102638.34;4913427;29;20209;-72
2021/12/16 05:49:22;;;;;;;33.15;17.02;;;8.00;99.90;;;7.93;82.20;102637.22;4933407;23;20255;-71
2021/12/16 05:51:52;;;;;;;34.30;19.98;;;7.90;99.90;;;7.82;82.86;102637.38;4933955;29;20209;-69
2021/12/16 05:54:23;;;;;;;33.65;19.70;;;7.80;99.90;;;7.86;82.65;102630.69;4935697;29;20292;-68
2021/12/16 05:57:23;;;;;;;34.05;18.92;;;7.80;99.90;;;7.83;82.85;102639.94;4932414;28;20717;-69
2021/12/16 06:00:00;;;;;;;31.98;19.83;;;7.80;99.90;;;7.80;82.70;102642.88;4917406;29;20193;-70
2021/12/16 06:02:30;;;;;;;26.48;18.45;;;7.80;99.90;;;7.81;82.90;102657.22;4946567;23;20240;-68
2021/12/16 06:05:01;;;;;;;27.13;17.48;;;7.70;99.90;;;7.79;82.82;102649.25;4927771;29;20205;-69
2021/12/16 06:07:29;;;;;;;33.05;17.00;;;7.70;99.90;;;7.80;82.62;102656.38;4930541;29;20280;-69
2021/12/16 06:09:58;;;;;;;29.55;19.48;;;7.70;99.90;;;7.83;82.49;102656.09;4936639;29;20696;-69
2021/12/16 06:12:28;;;;;;;31.00;18.50;;;7.70;99.90;;;7.77;82.67;102650.41;4947004;29;20248;-69
2021/12/16 06:15:13;;;;;;;33.25;18.95;;;7.70;99.90;;;7.85;82.66;102655.94;4958228;28;20699;-69
2021/12/16 06:28:48;;;;;;;26.30;16.73;;;7.80;99.90;;;7.90;82.31;102653.66;4941837;29;20461;-69
2021/12/16 06:31:16;;;;;;;29.63;19.25;;;7.80;99.90;;;7.96;82.14;102655.81;4940091;29;20199;-70
2021/12/16 06:33:45;;;;;;;31.83;19.85;;;7.90;99.90;;;7.95;82.08;102654.09;4937522;29;20717;-69
2021/12/16 06:36:15;;;;;;;27.40;18.60;;;7.90;99.90;;;8.01;82.22;102663.47;4939551;29;20200;-68
2021/12/16 06:38:43;;;;;;;27.88;17.58;;;7.90;99.90;;;8.06;81.73;102667.44;4955594;28;20197;-69
2021/12/16 06:41:38;;;;;;;27.08;16.67;;;8.00;99.90;;;8.10;81.71;102663.47;4936898;29;20682;-70
2021/12/16 06:44:42;;;;;;;30.75;18.23;;;8.00;99.90;;;8.13;81.48;102668.53;4932449;29;20208;-69
2021/12/16 06:47:17;;;;;;;24.52;16.05;;;8.00;99.90;;;8.06;81.66;102669.28;4937309;29;20200;-70
2021/12/16 06:49:48;;;;;;;29.27;17.55;;;8.00;99.90;;;8.18;81.48;102677.06;4937341;29;20251;-69
2021/12/16 06:52:23;;;;;;;38.65;16.75;;;8.00;99.90;;;8.20;81.43;102675.09;4936762;29;20268;-69
2021/12/16 06:55:03;;;;;;;26.27;15.63;;;8.10;99.90;;;8.06;81.64;102664.75;4936664;29;20188;-68
2021/12/16 06:57:43;;;;;;;22.02;16.10;;;8.00;99.90;;;8.06;81.70;102677.38;4955756;29;20216;-70
2021/12/16 07:00:31;;;;;;;30.42;17.92;;;8.00;99.90;;;8.05;81.79;102687.28;4955588;28;20202;-67
2021/12/16 07:03:02;;;;;;;28.42;16.70;;;8.00;99.90;;;8.12;81.71;102683.06;4950853;28;20491;-66
2021/12/16 07:05:35;;;;;;;29.63;18.63;;;8.00;99.90;;;8.02;81.67;102686.75;4937913;29;20200;-68
2021/12/16 07:08:11;;;;;;;26.60;18.55;;;8.00;99.90;;;8.09;81.70;102691.41;4934935;29;20189;-68
2021/12/16 07:10:45;;;;;;;25.23;16.25;;;8.00;99.90;;;8.16;81.73;102697.09;4937117;29;20212;-65
2021/12/16 07:13:19;;;;;;;25.73;16.55;;;8.00;99.90;;;8.13;81.43;102714.41;4936733;29;20613;-66
2021/12/16 07:15:49;;;;;;;24.52;17.33;;;8.00;99.90;;;8.28;81.69;102704.88;4938476;29;20711;-67
2021/12/16 07:18:17;;;;;;;30.00;16.00;;;8.10;99.90;;;8.26;81.27;102704.19;4955733;28;20171;-66
2021/12/16 07:20:46;;;;;;;27.10;17.40;;;8.10;99.90;;;8.28;81.19;102701.34;4955751;28;20198;-66
2021/12/16 07:23:21;;;;;;;22.80;16.13;;;8.10;99.90;;;8.18;81.46;102704.03;4948905;28;20244;-67
2021/12/16 07:25:49;;;;;;;30.23;18.75;;;8.10;99.90;;;8.26;81.34;102720.38;4922495;29;20178;-66
2021/12/16 07:28:18;;;;;;;29.55;17.95;;;8.20;99.90;;;8.06;81.61;102731.31;4955876;28;20649;-67
2021/12/16 07:30:48;;;;;;;24.33;17.08;;;8.10;99.90;;;8.06;81.88;102736.69;4955471;28;20188;-67
2021/12/16 07:33:17;;;;;;;33.60;17.67;;;8.00;99.90;;;8.19;81.62;102738.09;4953839;28;20302;-67
2021/12/16 07:35:47;;;;;;;26.65;18.17;;;8.10;99.90;;;7.98;82.03;102752.72;4944636;29;20207;-67
2021/12/16 07:38:17;;;;;;;27.73;18.33;;;8.00;99.90;;;8.12;81.92;102766.66;4936205;29;20689;-66
2021/12/16 07:40:50;;;;;;;25.45;17.45;;;8.00;99.90;;;8.15;81.90;102747.47;4936010;29;20181;-66
2021/12/16 07:43:40;;;;;;;32.08;18.95;;;8.10;99.90;;;8.18;81.51;102751.75;4935223;29;20209;-66
2021/12/16 07:46:11;;;;;;;25.90;16.95;;;8.10;99.90;;;8.16;81.71;102753.72;4917096;29;20239;-67
2021/12/16 07:48:40;;;;;;;26.48;17.75;;;8.10;99.90;;;8.21;82.12;102759.56;4917440;29;20189;-66
2021/12/16 07:51:10;;;;;;;24.60;16.15;;;8.10;99.90;;;8.15;81.94;102762.81;4917036;29;20201;-68
2021/12/16 07:53:40;;;;;;;26.88;16.45;;;8.10;99.90;;;8.35;81.55;102758.31;4920344;29;20316;-67
2021/12/16 07:56:10;;;;;;;29.20;18.30;;;8.20;99.90;;;8.25;81.80;102748.34;4947656;28;20173;-65
2021/12/16 07:58:39;;;;;;;29.52;16.92;;;8.10;99.90;;;8.28;81.99;102748.03;4936194;29;20197;-67
2021/12/16 08:01:09;;;;;;;25.30;18.45;;;8.20;99.90;;;8.36;81.84;102760.00;4936509;29;20634;-66
2021/12/16 08:03:38;;;;;;;26.30;16.85;;;8.20;99.90;;;8.24;81.94;102757.41;4935766;29;20216;-66
2021/12/16 08:06:13;;;;;;;32.75;18.15;;;8.20;99.90;;;8.28;82.06;102752.59;4940499;28;20199;-67
2021/12/16 08:08:45;;;;;;;24.75;18.08;;;8.20;99.90;;;8.33;81.88;102750.34;4942184;29;20642;-66
2021/12/16 08:11:16;;;;;;;25.95;16.23;;;8.20;99.90;;;8.44;81.77;102757.44;4935954;29;20189;-66
2021/12/16 08:13:44;;;;;;;33.63;16.65;;;8.30;99.90;;;8.39;81.96;102770.50;4935151;29;20736;-65
2021/12/16 08:16:13;;;;;;;32.45;15.68;;;8.30;99.90;;;8.39;82.07;102778.59;4935333;29;20232;-67
2021/12/16 08:18:41;;;;;;;23.13;15.52;;;8.30;99.90;;;8.31;82.24;102776.63;4935674;29;20668;-67
2021/12/16 08:21:10;;;;;;;23.52;14.77;;;8.20;99.90;;;8.45;81.73;102760.00;4935592;29;20185;-66
2021/12/16 08:23:38;;;;;;;23.58;16.20;;;8.30;99.90;;;8.44;81.60;102769.09;4935038;29;20292;-67
2021/12/16 08:26:07;;;;;;;23.70;16.65;;;8.30;99.90;;;8.50;81.37;102778.47;4939915;29;20188;-67
2021/12/16 08:28:37;;;;;;;27.35;16.08;;;8.30;99.90;;;8.43;81.79;102777.31;4954602;28;20192;-67
2021/12/16 08:31:07;;;;;;;22.08;14.02;;;8.40;99.90;;;8.38;81.82;102782.28;4954194;28;20255;-67
2021/12/16 08:33:35;;;;;;;24.60;16.25;;;8.30;99.90;;;8.32;82.22;102791.81;4949611;28;20414;-67
2021/12/16 08:36:09;;;;;;;27.90;16.88;;;8.30;99.90;;;8.44;81.85;102773.63;4947384;29;20196;-68
2021/12/16 08:38:39;;;;;;;26.67;15.45;;;8.30;99.90;;;8.50;81.78;102782.03;4954287;28;20556;-67
2021/12/16 08:41:14;;;;;;;26.45;16.17;;;8.40;99.90;;;8.52;81.74;102792.69;4954424;28;20191;-67
2021/12/16 08:43:45;;;;;;;24.63;15.85;;;8.40;99.90;;;8.44;81.47;102798.78;4947727;28;20227;-67
2021/12/16 08:46:18;;;;;;;26.02;15.73;;;8.40;99.90;;;8.25;82.27;102786.09;4942971;29;20276;-67
2021/12/16 08:48:49;;;;;;;22.38;14.80;;;8.20;99.90;;;8.40;82.17;102791.97;4934778;29;20209;-68
2021/12/16 08:51:27;;;;;;;18.98;14.30;;;8.30;99.90;;;8.36;81.93;102803.19;4934732;29;20207;-68
2021/12/16 08:53:58;;;;;;;26.65;16.35;;;8.30;99.90;;;8.32;82.10;102808.00;4933008;29;20213;-67
2021/12/16 08:56:28;;;;;;;28.42;13.82;;;8.30;99.90;;;8.24;82.40;102815.91;4948531;29;20199;-66
2021/12/16 08:59:00;;;;;;;30.40;14.95;;;8.20;99.90;;;8.21;82.52;102818.91;4954252;28;20664;-68
2021/12/16 09:01:34;;;;;;;23.10;15.13;;;8.20;99.90;;;8.31;82.71;102827.03;4954071;28;20272;-66
2021/12/16 09:04:04;;;;;;;20.95;14.38;;;8.20;99.90;;;8.32;82.57;102817.94;4937070;28;20223;-66
2021/12/16 09:06:34;;;;;;;19.88;13.88;;;8.30;99.90;;;8.45;82.22;102822.06;4941295;29;20189;-67
2021/12/16 09:09:07;;;;;;;19.27;15.43;;;8.30;99.90;;;8.64;81.75;102821.22;4943554;29;20678;-67
2021/12/16 09:11:42;;;;;;;24.88;14.35;;;8.50;99.90;;;8.51;82.02;102832.31;4948719;28;20193;-69
2021/12/16 09:14:12;;;;;;;21.55;14.60;;;8.40;99.90;;;8.51;81.80;102834.16;4937788;29;20200;-68
2021/12/16 09:16:41;;;;;;;20.83;15.45;;;8.40;99.90;;;8.48;81.98;102843.34;4946140;28;20553;-66
2021/12/16 09:19:11;;;;;;;25.10;14.85;;;8.40;99.90;;;8.42;81.89;102830.47;4938115;28;20199;-66
2021/12/16 09:21:39;;;;;;;33.83;15.60;;;8.40;99.90;;;8.57;81.85;102823.63;4935652;29;20244;-66
2021/12/16 09:24:09;;;;;;;23.05;14.38;;;8.40;99.90;;;8.48;82.15;102821.78;4940128;29;20194;-66
2021/12/16 09:26:38;;;;;;;21.25;15.45;;;8.40;99.90;;;8.61;81.77;102819.66;4946419;28;20188;-66
2021/12/16 09:29:06;;;;;;;22.63;14.00;;;8.50;99.90;;;8.61;81.87;102829.59;4938449;29;20563;-67
2021/12/16 09:31:37;;;;;;;29.08;14.35;;;8.50;99.90;;;8.58;81.99;102833.41;4938993;29;20184;-67
2021/12/16 09:34:12;;;;;;;23.90;15.00;;;8.50;99.90;;;8.73;81.46;102856.28;4941526;29;20216;-67
2021/12/16 09:36:50;;;;;;;21.80;14.90;;;8.60;99.90;;;8.61;81.51;102851.19;4958256;28;20196;-65
2021/12/16 09:39:23;;;;;;;18.00;13.07;;;8.60;99.90;;;8.57;81.66;102856.00;4958207;28;20196;-68
2021/12/16 09:41:55;;;;;;;26.90;14.77;;;8.50;99.90;;;8.59;81.88;102853.16;4957888;28;20204;-67
2021/12/16 09:44:25;;;;;;;23.83;15.00;;;8.50;99.90;;;8.55;81.86;102865.25;4952876;28;20672;-67
2021/12/16 09:47:00;;;;;;;22.10;14.27;;;8.50;99.90;;;8.54;81.83;102860.84;4957683;28;20211;-68
2021/12/16 09:49:29;;;;;;;20.33;12.93;;;8.50;99.90;;;8.62;81.73;102864.53;4958074;28;20232;-66
2021/12/16 09:51:59;;;;;;;19.23;13.63;;;8.60;99.90;;;8.59;81.61;102858.56;4957850;28;20180;-67
2021/12/16 09:54:31;;;;;;;20.90;13.15;;;8.50;99.90;;;8.50;82.18;102848.63;4944078;28;20205;-67
2021/12/16 09:57:01;;;;;;;19.45;13.93;;;8.50;99.90;;;8.59;82.37;102845.94;4941982;29;20192;-67
2021/12/16 09:59:32;;;;;;;25.02;14.95;;;8.50;99.90;;;8.76;81.64;102843.53;4958044;28;20673;-67
2021/12/16 10:02:08;;;;;;;19.52;14.63;;;8.60;99.90;;;8.81;81.24;102831.28;4957276;28;20218;-67
2021/12/16 10:04:38;;;;;;;19.00;13.45;;;8.70;99.90;;;8.83;81.23;102840.09;4945715;28;20280;-65
2021/12/16 10:07:13;;;;;;;20.42;13.98;;;8.70;99.90;;;8.72;81.42;102848.34;4947777;28;20219;-68
2021/12/16 10:09:44;;;;;;;18.33;13.15;;;8.70;99.90;;;8.78;81.58;102861.25;4944341;28;20199;-67
2021/12/16 10:12:17;;;;;;;22.77;13.90;;;8.70;99.90;;;8.77;81.49;102848.75;4942793;29;20312;-67
2021/12/16 10:15:06;;;;;;;18.83;13.93;;;8.70;99.90;;;8.89;81.09;102839.53;4928483;29;20208;-68
2021/12/16 10:17:40;;;;;;;19.25;13.73;;;8.70;99.90;;;8.84;81.29;102849.91;4940653;28;20570;-69
2021/12/16 10:20:16;;;;;;;16.55;12.43;;;8.80;99.90;;;8.87;81.33;102856.84;4938080;29;20653;-67
2021/12/16 10:22:50;;;;;;;20.65;11.15;;;8.80;99.90;;;8.78;81.63;102852.31;4937940;29;20212;-68
2021/12/16 10:25:28;;;;;;;21.17;13.45;;;8.70;99.90;;;9.03;81.31;102857.13;4950670;29;20204;-66
2021/12/16 10:28:10;;;;;;;18.67;12.18;;;8.80;99.90;;;8.95;81.09;102860.56;4957504;28;20235;-68
2021/12/16 10:30:55;;;;;;;17.73;12.57;;;8.90;99.90;;;9.15;80.26;102851.41;4957399;28;20191;-66
2021/12/16 10:33:31;;;;;;;17.80;10.73;;;9.00;99.90;;;9.02;80.56;102852.72;4949111;28;20239;-66
2021/12/16 10:36:12;;;;;;;16.33;11.40;;;9.00;99.90;;;8.97;80.83;102855.00;4938252;29;20688;-68
2021/12/16 10:38:46;;;;;;;16.90;11.40;;;8.90;99.90;;;9.08;80.21;102850.28;4937352;29;20255;-69
2021/12/16 10:41:20;;;;;;;18.42;11.95;;;9.00;99.90;;;9.03;80.31;102849.88;4938388;29;20641;-68
2021/12/16 10:43:55;;;;;;;17.92;10.40;;;8.90;99.90;;;9.07;80.22;102863.94;4933059;29;20228;-68
2021/12/16 10:46:27;;;;;;;14.13;11.07;;;8.90;99.90;;;9.25;79.92;102851.38;4948181;29;20187;-67
2021/12/16 10:49:03;;;;;;;11.73;9.07;;;9.10;99.90;;;9.31;78.99;102850.81;4966388;28;20200;-67
2021/12/16 10:51:35;;;;;;;12.43;10.20;;;9.10;99.90;;;9.34;78.60;102861.34;4964600;28;20196;-68
2021/12/16 10:54:14;;;;;;;10.40;7.28;;;9.20;99.90;;;9.21;78.38;102857.22;4958924;28;20601;-66
2021/12/16 10:57:05;;;;;;;11.00;8.90;;;9.20;99.90;;;9.28;78.81;102863.75;4956020;28;20192;-68
2021/12/16 10:59:43;;;;;;;14.02;9.25;;;9.10;99.90;;;9.46;78.28;102867.41;4958174;28;20994;-68
2021/12/16 11:02:17;;;;;;;15.70;9.60;;;9.30;99.90;;;9.37;78.19;102860.19;4942232;29;20228;-66
2021/12/16 11:04:52;;;;;;;12.35;8.93;;;9.30;99.90;;;9.40;78.17;102866.13;4939870;29;20559;-66
2021/12/16 11:07:26;;;;;;;10.82;8.90;;;9.30;99.90;;;9.51;77.76;102862.41;4952655;29;20270;-66
2021/12/16 11:10:05;;;;;;;9.70;7.85;;;9.40;99.90;;;9.40;77.71;102863.44;4956478;28;20210;-67
2021/12/16 11:12:48;;;;;;;13.35;7.70;;;9.30;99.90;;;9.69;76.64;102873.28;4956087;28;20214;-67
2021/12/16 11:15:24;;;;;;;10.20;8.20;;;9.50;99.90;;;9.69;76.28;102875.97;4936616;28;20732;-66
2021/12/16 11:18:20;;;;;;;14.03;8.90;;;9.60;99.90;;;9.77;75.82;102868.88;4943422;29;20215;-68
2021/12/16 11:20:55;;;;;;;9.07;7.32;;;9.70;99.90;;;9.82;75.82;102866.56;4917630;29;20426;-67
2021/12/16 11:23:30;;;;;;;9.10;7.50;;;9.70;99.90;;;9.91;75.21;102865.66;4935108;29;20223;-65
2021/12/16 11:26:06;;;;;;;9.55;6.97;;;9.80;99.90;;;9.94;75.01;102865.34;4947227;29;20179;-66
2021/12/16 11:28:38;;;;;;;13.13;9.60;;;9.80;99.90;;;10.05;74.39;102872.41;4955947;28;20196;-66
2021/12/16 11:31:10;;;;;;;8.20;6.28;;;9.90;99.90;;;9.78;75.20;102872.41;4942183;28;20207;-67
2021/12/16 11:33:42;;;;;;;11.63;6.70;;;9.80;99.90;;;9.70;75.37;102873.16;4936407;29;20213;-67
2021/12/16 11:36:16;;;;;;;13.43;7.80;;;9.70;99.90;;;9.72;75.74;102871.16;4939003;29;20232;-66
2021/12/16 11:38:50;;;;;;;8.55;6.47;;;9.60;99.90;;;9.82;75.88;102865.72;4955373;28;20188;-67
2021/12/16 11:41:26;;;;;;;11.15;8.30;;;9.70;99.90;;;9.75;75.66;102860.03;4955646;28;20183;-66
2021/12/16 11:44:09;;;;;;;10.95;8.25;;;9.70;99.90;;;9.75;75.79;102865.44;4945884;28;20212;-67
2021/12/16 11:46:43;;;;;;;10.27;6.35;;;9.70;99.90;;;9.69;74.61;102871.44;4936479;29;20177;-66
2021/12/16 11:49:22;;;;;;;9.75;6.40;;;9.70;99.90;;;9.81;74.57;102875.66;4936507;29;20263;-67
2021/12/16 11:51:59;;;;;;;7.10;5.17;;;9.70;99.90;;;9.71;73.84;102884.81;4935288;29;20201;-67
2021/12/16 11:54:32;;;;;;;9.05;5.90;;;9.60;99.90;;;9.63;74.22;102877.47;4937451;29;20562;-67
2021/12/16 11:57:07;;;;;;;5.57;4.95;;;9.60;99.90;;;9.62;73.86;102883.84;4917634;29;20561;-68
2021/12/16 11:59:41;;;;;;;9.82;6.05;;;9.60;99.90;;;9.79;73.70;102876.81;4917018;29;20188;-67
2021/12/16 12:02:11;;;;;;;6.43;5.03;;;9.70;99.90;;;9.85;73.65;102881.63;4929397;23;20228;31
2021/12/16 12:04:40;;;;;;;6.40;5.13;;;9.70;99.90;;;9.94;73.07;102892.41;4938300;29;20256;-73
2021/12/16 12:07:16;;;;;;;5.80;4.93;;;9.80;99.90;;;10.11;73.06;102895.31;4947584;29;20643;-73
2021/12/16 12:09:54;;;;;;;5.03;4.53;;;9.90;99.90;;;9.96;71.97;102895.81;4946240;29;20437;-77
2021/12/16 12:12:41;;;;;;;6.70;4.95;;;9.90;99.90;;;9.84;72.57;102897.00;4943144;29;20559;-76
2021/12/16 12:15:14;;;;;;;6.18;4.88;;;9.80;99.90;;;9.89;72.42;102897.41;4949472;29;20268;-75
2021/12/16 12:17:49;;;;;;;6.90;4.40;;;9.80;99.90;;;9.68;72.65;102895.94;4962126;28;20396;-77
2021/12/16 12:20:19;;;;;;;7.18;5.45;;;9.60;99.90;;;9.64;73.26;102889.94;4965280;28;20180;-73
2021/12/16 12:22:53;;;;;;;6.67;5.03;;;9.60;99.90;;;9.78;72.84;102908.41;4962410;29;20200;-76
2021/12/16 12:25:23;;;;;;;7.32;6.13;;;9.60;99.90;;;9.85;72.77;102904.13;4947735;28;20468;-74
2021/12/16 12:27:51;;;;;;;6.88;5.47;;;9.70;99.90;;;9.78;73.09;102903.00;4942983;28;20296;-74
2021/12/16 12:30:21;;;;;;;6.37;5.77;;;9.70;99.90;;;9.76;73.15;102899.59;4945905;29;20177;-75
2021/12/16 12:32:52;;;;;;;7.70;5.10;;;9.60;99.90;;;9.71;72.95;102890.22;4960525;29;20785;-76
2021/12/16 12:35:27;;;;;;;8.00;5.20;;;9.60;99.90;;;9.56;73.06;102881.75;4943703;29;20504;-75